sensor_id;sensor_type;location;lat;lon;timestamp;pressure;altitude;pressure_sealevel;temperature;humidity
68793;BME280;55778;54.346;10.210;2023-06-04T00:02:04;101872.16;;;9.75;90.55
68793;BME280;55778;54.346;10.210;2023-06-04T00:04:29;101860.16;;;9.78;90.51
68793;BME280;55778;54.346;10.210;2023-06-04T00:06:55;101862.75;;;9.79;90.81
68793;BME280;55778;54.346;10.210;2023-06-04T00:09:20;101865.94;;;9.73;91.19
68793;BME280;55778;54.346;10.210;2023-06-04T00:11:46;101868.72;;;9.61;91.97
68793;BME280;55778;54.346;10.210;2023-06-04T00:14:13;101860.56;;;9.48;92.44
68793;BME280;55778;54.346;10.210;2023-06-04T00:16:38;101871.91;;;9.42;93.63
68793;BME280;55778;54.346;10.210;2023-06-04T00:19:06;101873.34;;;9.35;94.28
68793;BME280;55778;54.346;10.210;2023-06-04T00:21:31;101872.66;;;9.32;94.95
68793;BME280;55778;54.346;10.210;2023-06-04T00:23:56;101862.66;;;9.32;95.57
68793;BME280;55778;54.346;10.210;2023-06-04T00:26:22;101863.66;;;9.31;95.98
68793;BME280;55778;54.346;10.210;2023-06-04T00:28:47;101855.28;;;9.34;95.66
68793;BME280;55778;54.346;10.210;2023-06-04T00:31:13;101852.22;;;9.39;95.71
68793;BME280;55778;54.346;10.210;2023-06-04T00:33:39;101857.44;;;9.42;94.81
68793;BME280;55778;54.346;10.210;2023-06-04T00:36:04;101859.06;;;9.44;94.34
68793;BME280;55778;54.346;10.210;2023-06-04T00:38:30;101858.41;;;9.41;94.15
68793;BME280;55778;54.346;10.210;2023-06-04T00:40:55;101860.16;;;9.29;95.09
68793;BME280;55778;54.346;10.210;2023-06-04T00:43:20;101853.13;;;9.14;96.98
68793;BME280;55778;54.346;10.210;2023-06-04T00:45:46;101863.56;;;9.08;98.78
68793;BME280;55778;54.346;10.210;2023-06-04T00:48:11;101862.91;;;9.04;100.00
68793;BME280;55778;54.346;10.210;2023-06-04T00:50:37;101861.94;;;9.05;99.20
68793;BME280;55778;54.346;10.210;2023-06-04T00:53:04;101861.81;;;9.07;99.81
68793;BME280;55778;54.346;10.210;2023-06-04T00:55:30;101863.78;;;9.05;100.00
68793;BME280;55778;54.346;10.210;2023-06-04T00:57:56;101865.84;;;9.01;100.00
68793;BME280;55778;54.346;10.210;2023-06-04T01:00:22;101863.34;;;8.98;100.00
68793;BME280;55778;54.346;10.210;2023-06-04T01:02:49;101861.84;;;8.94;100.00
68793;BME280;55778;54.346;10.210;2023-06-04T01:05:33;101865.84;;;8.89;100.00
68793;BME280;55778;54.346;10.210;2023-06-04T01:08:02;101870.53;;;8.87;100.00
68793;BME280;55778;54.346;10.210;2023-06-04T01:10:27;101871.38;;;8.87;100.00
68793;BME280;55778;54.346;10.210;2023-06-04T01:12:53;101852.81;;;8.94;100.00
68793;BME280;55778;54.346;10.210;2023-06-04T01:15:18;101858.56;;;8.89;100.00
68793;BME280;55778;54.346;10.210;2023-06-04T01:17:46;101850.72;;;8.85;100.00
68793;BME280;55778;54.346;10.210;2023-06-04T01:20:39;101853.56;;;8.71;100.00
68793;BME280;55778;54.346;10.210;2023-06-04T01:23:14;101854.41;;;8.71;100.00
68793;BME280;55778;54.346;10.210;2023-06-04T01:25:44;101852.69;;;8.70;100.00
68793;BME280;55778;54.346;10.210;2023-06-04T01:28:12;101860.16;;;8.67;100.00
68793;BME280;55778;54.346;10.210;2023-06-04T01:30:40;101854.75;;;8.67;100.00
68793;BME280;55778;54.346;10.210;2023-06-04T01:33:12;101854.75;;;8.67;100.00
68793;BME280;55778;54.346;10.210;2023-06-04T01:35:38;101853.13;;;8.64;100.00
68793;BME280;55778;54.346;10.210;2023-06-04T01:38:03;101850.47;;;8.50;100.00
68793;BME280;55778;54.346;10.210;2023-06-04T01:40:29;101854.38;;;8.46;100.00
68793;BME280;55778;54.346;10.210;2023-06-04T01:42:55;101843.38;;;8.23;100.00
68793;BME280;55778;54.346;10.210;2023-06-04T01:45:21;101859.94;;;8.18;100.00
68793;BME280;55778;54.346;10.210;2023-06-04T01:47:47;101856.53;;;8.14;100.00
68793;BME280;55778;54.346;10.210;2023-06-04T01:50:12;101867.81;;;8.23;100.00
68793;BME280;55778;54.346;10.210;2023-06-04T01:52:39;101871.09;;;8.28;100.00
68793;BME280;55778;54.346;10.210;2023-06-04T01:55:06;101876.84;;;8.23;100.00
68793;BME280;55778;54.346;10.210;2023-06-04T01:57:33;101867.97;;;8.19;100.00
68793;BME280;55778;54.346;10.210;2023-06-04T01:59:58;101871.56;;;8.20;100.00
68793;BME280;55778;54.346;10.210;2023-06-04T02:02:23;101872.94;;;8.13;100.00
68793;BME280;55778;54.346;10.210;2023-06-04T02:04:49;101865.88;;;8.10;100.00
68793;BME280;55778;54.346;10.210;2023-06-04T02:07:20;101863.84;;;8.14;100.00
68793;BME280;55778;54.346;10.210;2023-06-04T02:09:49;101879.34;;;8.12;100.00
68793;BME280;55778;54.346;10.210;2023-06-04T02:12:15;101871.78;;;8.17;100.00
68793;BME280;55778;54.346;10.210;2023-06-04T02:14:41;101877.97;;;8.19;100.00
68793;BME280;55778;54.346;10.210;2023-06-04T02:17:07;101879.81;;;8.18;100.00
68793;BME280;55778;54.346;10.210;2023-06-04T02:19:39;101873.91;;;8.26;100.00
68793;BME280;55778;54.346;10.210;2023-06-04T02:22:05;101883.69;;;8.29;100.00
68793;BME280;55778;54.346;10.210;2023-06-04T02:24:31;101879.56;;;8.36;100.00
68793;BME280;55778;54.346;10.210;2023-06-04T02:26:56;101884.69;;;8.40;100.00
68793;BME280;55778;54.346;10.210;2023-06-04T02:29:21;101887.97;;;8.45;100.00
68793;BME280;55778;54.346;10.210;2023-06-04T02:31:47;101885.66;;;8.39;100.00
68793;BME280;55778;54.346;10.210;2023-06-04T02:34:12;101881.94;;;8.28;100.00
68793;BME280;55778;54.346;10.210;2023-06-04T02:36:37;101887.09;;;8.18;100.00
68793;BME280;55778;54.346;10.210;2023-06-04T02:39:03;101889.22;;;8.13;100.00
68793;BME280;55778;54.346;10.210;2023-06-04T02:41:28;101886.72;;;8.10;100.00
68793;BME280;55778;54.346;10.210;2023-06-04T02:43:54;101888.47;;;8.11;100.00
68793;BME280;55778;54.346;10.210;2023-06-04T02:46:19;101896.72;;;8.09;100.00
68793;BME280;55778;54.346;10.210;2023-06-04T02:48:44;101894.97;;;8.08;100.00
68793;BME280;55778;54.346;10.210;2023-06-04T02:51:10;101899.53;;;8.08;100.00
68793;BME280;55778;54.346;10.210;2023-06-04T02:53:36;101893.13;;;8.09;100.00
68793;BME280;55778;54.346;10.210;2023-06-04T02:56:01;101887.50;;;8.12;100.00
68793;BME280;55778;54.346;10.210;2023-06-04T02:58:27;101892.25;;;8.23;100.00
68793;BME280;55778;54.346;10.210;2023-06-04T03:00:54;101889.53;;;8.23;100.00
68793;BME280;55778;54.346;10.210;2023-06-04T03:03:20;101884.09;;;8.23;100.00
68793;BME280;55778;54.346;10.210;2023-06-04T03:05:46;101891.84;;;8.14;100.00
68793;BME280;55778;54.346;10.210;2023-06-04T03:08:11;101890.63;;;8.06;100.00
68793;BME280;55778;54.346;10.210;2023-06-04T03:10:37;101888.00;;;8.04;100.00
68793;BME280;55778;54.346;10.210;2023-06-04T03:13:03;101895.72;;;7.98;100.00
68793;BME280;55778;54.346;10.210;2023-06-04T03:15:28;101897.44;;;7.99;100.00
68793;BME280;55778;54.346;10.210;2023-06-04T03:17:53;101897.69;;;8.08;100.00
68793;BME280;55778;54.346;10.210;2023-06-04T03:20:20;101890.81;;;8.03;100.00
68793;BME280;55778;54.346;10.210;2023-06-04T03:22:49;101895.59;;;7.99;100.00
68793;BME280;55778;54.346;10.210;2023-06-04T03:25:15;101893.84;;;7.98;100.00
68793;BME280;55778;54.346;10.210;2023-06-04T03:27:41;101892.59;;;8.04;100.00
68793;BME280;55778;54.346;10.210;2023-06-04T03:30:06;101891.03;;;8.00;100.00
68793;BME280;55778;54.346;10.210;2023-06-04T03:32:32;101899.16;;;8.00;100.00
68793;BME280;55778;54.346;10.210;2023-06-04T03:34:58;101897.44;;;7.99;100.00
68793;BME280;55778;54.346;10.210;2023-06-04T03:37:23;101899.28;;;7.98;100.00
68793;BME280;55778;54.346;10.210;2023-06-04T03:39:48;101910.13;;;7.98;100.00
68793;BME280;55778;54.346;10.210;2023-06-04T03:42:14;101901.13;;;7.98;100.00
68793;BME280;55778;54.346;10.210;2023-06-04T03:44:39;101910.03;;;8.00;100.00
68793;BME280;55778;54.346;10.210;2023-06-04T03:47:05;101909.19;;;7.99;100.00
68793;BME280;55778;54.346;10.210;2023-06-04T03:49:30;101908.00;;;8.03;100.00
68793;BME280;55778;54.346;10.210;2023-06-04T03:51:55;101907.78;;;8.06;100.00
68793;BME280;55778;54.346;10.210;2023-06-04T03:54:21;101900.38;;;8.08;100.00
68793;BME280;55778;54.346;10.210;2023-06-04T03:56:47;101901.94;;;8.12;100.00
68793;BME280;55778;54.346;10.210;2023-06-04T03:59:12;101902.59;;;8.16;100.00
68793;BME280;55778;54.346;10.210;2023-06-04T04:01:38;101898.56;;;8.23;100.00
68793;BME280;55778;54.346;10.210;2023-06-04T04:04:04;101908.13;;;8.29;100.00
68793;BME280;55778;54.346;10.210;2023-06-04T04:06:30;101902.75;;;8.41;100.00
68793;BME280;55778;54.346;10.210;2023-06-04T04:08:55;101898.84;;;8.45;100.00
68793;BME280;55778;54.346;10.210;2023-06-04T04:11:21;101883.19;;;8.49;100.00
68793;BME280;55778;54.346;10.210;2023-06-04T04:13:47;101893.97;;;8.63;100.00
68793;BME280;55778;54.346;10.210;2023-06-04T04:16:13;101889.84;;;8.70;100.00
68793;BME280;55778;54.346;10.210;2023-06-04T04:18:38;101892.03;;;8.77;100.00
68793;BME280;55778;54.346;10.210;2023-06-04T04:21:04;101895.44;;;8.81;100.00
68793;BME280;55778;54.346;10.210;2023-06-04T04:23:30;101886.72;;;8.88;100.00
68793;BME280;55778;54.346;10.210;2023-06-04T04:25:58;101895.19;;;8.96;100.00
68793;BME280;55778;54.346;10.210;2023-06-04T04:28:26;101887.59;;;9.01;100.00
68793;BME280;55778;54.346;10.210;2023-06-04T04:30:57;101891.41;;;9.11;100.00
68793;BME280;55778;54.346;10.210;2023-06-04T04:33:27;101881.59;;;9.21;100.00
68793;BME280;55778;54.346;10.210;2023-06-04T04:35:52;101890.66;;;9.34;100.00
68793;BME280;55778;54.346;10.210;2023-06-04T04:38:21;101891.59;;;9.33;100.00
68793;BME280;55778;54.346;10.210;2023-06-04T04:40:49;101891.28;;;9.38;100.00
68793;BME280;55778;54.346;10.210;2023-06-04T04:43:27;101895.81;;;9.50;100.00
68793;BME280;55778;54.346;10.210;2023-06-04T04:45:53;101896.38;;;9.55;100.00
68793;BME280;55778;54.346;10.210;2023-06-04T04:48:19;101894.38;;;9.57;100.00
68793;BME280;55778;54.346;10.210;2023-06-04T04:50:44;101901.88;;;9.66;100.00
68793;BME280;55778;54.346;10.210;2023-06-04T04:53:09;101891.63;;;9.82;100.00
68793;BME280;55778;54.346;10.210;2023-06-04T04:55:35;101893.13;;;9.86;100.00
68793;BME280;55778;54.346;10.210;2023-06-04T04:58:00;101894.97;;;9.85;100.00
68793;BME280;55778;54.346;10.210;2023-06-04T05:00:25;101890.81;;;9.92;100.00
68793;BME280;55778;54.346;10.210;2023-06-04T05:02:51;101893.06;;;9.98;100.00
68793;BME280;55778;54.346;10.210;2023-06-04T05:05:16;101889.34;;;10.12;100.00
68793;BME280;55778;54.346;10.210;2023-06-04T05:07:42;101882.81;;;10.15;100.00
68793;BME280;55778;54.346;10.210;2023-06-04T05:10:07;101884.84;;;10.24;100.00
68793;BME280;55778;54.346;10.210;2023-06-04T05:12:33;101882.88;;;10.26;100.00
68793;BME280;55778;54.346;10.210;2023-06-04T05:14:59;101889.22;;;10.37;100.00
68793;BME280;55778;54.346;10.210;2023-06-04T05:17:24;101881.00;;;10.50;100.00
68793;BME280;55778;54.346;10.210;2023-06-04T05:19:58;101880.69;;;10.42;100.00
68793;BME280;55778;54.346;10.210;2023-06-04T05:22:29;101883.38;;;10.54;100.00
68793;BME280;55778;54.346;10.210;2023-06-04T05:24:54;101882.06;;;10.71;100.00
68793;BME280;55778;54.346;10.210;2023-06-04T05:27:23;101880.00;;;10.85;100.00
68793;BME280;55778;54.346;10.210;2023-06-04T05:29:49;101884.72;;;10.94;100.00
68793;BME280;55778;54.346;10.210;2023-06-04T05:32:14;101880.38;;;10.92;100.00
68793;BME280;55778;54.346;10.210;2023-06-04T05:34:40;101876.41;;;11.07;100.00
68793;BME280;55778;54.346;10.210;2023-06-04T05:37:06;101880.78;;;11.09;100.00
68793;BME280;55778;54.346;10.210;2023-06-04T05:39:33;101878.06;;;11.09;99.87
68793;BME280;55778;54.346;10.210;2023-06-04T05:42:00;101878.78;;;11.11;99.61
68793;BME280;55778;54.346;10.210;2023-06-04T05:44:25;101876.41;;;11.07;99.62
68793;BME280;55778;54.346;10.210;2023-06-04T05:46:50;101879.66;;;11.12;99.71
68793;BME280;55778;54.346;10.210;2023-06-04T05:49:16;101880.41;;;11.14;98.95
68793;BME280;55778;54.346;10.210;2023-06-04T05:51:42;101880.19;;;11.17;98.97
68793;BME280;55778;54.346;10.210;2023-06-04T05:54:07;101890.72;;;11.21;98.86
68793;BME280;55778;54.346;10.210;2023-06-04T05:56:32;101894.31;;;11.33;98.30
68793;BME280;55778;54.346;10.210;2023-06-04T05:58:58;101888.84;;;11.44;96.99
68793;BME280;55778;54.346;10.210;2023-06-04T06:01:23;101894.56;;;11.52;97.14
68793;BME280;55778;54.346;10.210;2023-06-04T06:03:49;101894.56;;;11.52;97.49
68793;BME280;55778;54.346;10.210;2023-06-04T06:06:14;101885.88;;;11.58;95.78
68793;BME280;55778;54.346;10.210;2023-06-04T06:08:39;101886.25;;;11.53;93.50
68793;BME280;55778;54.346;10.210;2023-06-04T06:11:05;101889.63;;;11.68;93.49
68793;BME280;55778;54.346;10.210;2023-06-04T06:13:30;101885.50;;;11.73;91.46
68793;BME280;55778;54.346;10.210;2023-06-04T06:15:56;101884.75;;;11.93;88.87
68793;BME280;55778;54.346;10.210;2023-06-04T06:18:22;101890.72;;;11.87;89.50
68793;BME280;55778;54.346;10.210;2023-06-04T06:20:47;101887.75;;;11.90;88.64
68793;BME280;55778;54.346;10.210;2023-06-04T06:23:13;101885.72;;;12.03;86.26
68793;BME280;55778;54.346;10.210;2023-06-04T06:25:39;101887.09;;;12.09;88.59
68793;BME280;55778;54.346;10.210;2023-06-04T06:28:10;101884.19;;;12.22;89.04
68793;BME280;55778;54.346;10.210;2023-06-04T06:30:36;101878.31;;;12.37;87.17
68793;BME280;55778;54.346;10.210;2023-06-04T06:33:01;101880.09;;;12.48;85.47
68793;BME280;55778;54.346;10.210;2023-06-04T06:35:27;101877.19;;;12.60;84.50
68793;BME280;55778;54.346;10.210;2023-06-04T06:37:52;101879.78;;;12.62;83.67
68793;BME280;55778;54.346;10.210;2023-06-04T06:40:19;101888.63;;;12.65;83.96
68793;BME280;55778;54.346;10.210;2023-06-04T06:42:48;101887.31;;;12.80;82.82
68793;BME280;55778;54.346;10.210;2023-06-04T06:45:15;101884.09;;;12.75;80.88
68793;BME280;55778;54.346;10.210;2023-06-04T06:47:40;101887.63;;;13.07;80.35
68793;BME280;55778;54.346;10.210;2023-06-04T06:50:06;101883.56;;;12.81;78.35
68793;BME280;55778;54.346;10.210;2023-06-04T06:52:32;101886.84;;;12.64;76.25
68793;BME280;55778;54.346;10.210;2023-06-04T06:54:57;101886.72;;;12.86;78.42
68793;BME280;55778;54.346;10.210;2023-06-04T06:57:22;101888.25;;;12.59;77.34
68793;BME280;55778;54.346;10.210;2023-06-04T06:59:48;101893.34;;;12.84;77.76
68793;BME280;55778;54.346;10.210;2023-06-04T07:02:13;101896.84;;;12.86;76.70
68793;BME280;55778;54.346;10.210;2023-06-04T07:04:38;101899.03;;;13.33;75.79
68793;BME280;55778;54.346;10.210;2023-06-04T07:07:04;101905.91;;;13.48;75.34
68793;BME280;55778;54.346;10.210;2023-06-04T07:09:30;101907.69;;;13.58;74.91
68793;BME280;55778;54.346;10.210;2023-06-04T07:11:55;101902.59;;;13.54;75.15
68793;BME280;55778;54.346;10.210;2023-06-04T07:14:20;101900.88;;;13.53;73.27
68793;BME280;55778;54.346;10.210;2023-06-04T07:16:46;101897.47;;;13.70;74.20
68793;BME280;55778;54.346;10.210;2023-06-04T07:19:11;101894.81;;;14.29;74.37
68793;BME280;55778;54.346;10.210;2023-06-04T07:21:36;101899.84;;;14.43;72.25
68793;BME280;55778;54.346;10.210;2023-06-04T07:24:02;101899.16;;;14.79;68.87
68793;BME280;55778;54.346;10.210;2023-06-04T07:26:27;101897.53;;;15.05;67.65
68793;BME280;55778;54.346;10.210;2023-06-04T07:28:56;101895.81;;;15.59;63.24
68793;BME280;55778;54.346;10.210;2023-06-04T07:31:24;101895.16;;;15.29;63.75
68793;BME280;55778;54.346;10.210;2023-06-04T07:33:49;101913.44;;;14.54;64.68
68793;BME280;55778;54.346;10.210;2023-06-04T07:36:16;101910.25;;;14.68;65.25
68793;BME280;55778;54.346;10.210;2023-06-04T07:38:42;101905.69;;;15.52;64.43
68793;BME280;55778;54.346;10.210;2023-06-04T07:41:09;101904.25;;;15.48;62.83
68793;BME280;55778;54.346;10.210;2023-06-04T07:43:35;101900.13;;;15.16;61.89
68793;BME280;55778;54.346;10.210;2023-06-04T07:46:04;101906.09;;;15.57;64.40
68793;BME280;55778;54.346;10.210;2023-06-04T07:48:30;101906.97;;;15.85;59.02
68793;BME280;55778;54.346;10.210;2023-06-04T07:51:00;101907.75;;;16.05;57.29
68793;BME280;55778;54.346;10.210;2023-06-04T07:53:26;101909.53;;;15.59;51.54
68793;BME280;55778;54.346;10.210;2023-06-04T07:55:52;101908.66;;;16.23;50.47
68793;BME280;55778;54.346;10.210;2023-06-04T07:58:17;101908.00;;;16.56;51.75
68793;BME280;55778;54.346;10.210;2023-06-04T08:00:43;101902.44;;;16.48;51.03
68793;BME280;55778;54.346;10.210;2023-06-04T08:03:08;101909.31;;;16.07;54.42
68793;BME280;55778;54.346;10.210;2023-06-04T08:05:34;101906.97;;;15.85;55.81
68793;BME280;55778;54.346;10.210;2023-06-04T08:08:00;101907.63;;;16.24;55.98
68793;BME280;55778;54.346;10.210;2023-06-04T08:10:26;101911.59;;;16.39;53.51
68793;BME280;55778;54.346;10.210;2023-06-04T08:12:51;101913.09;;;16.33;53.22
68793;BME280;55778;54.346;10.210;2023-06-04T08:15:17;101906.44;;;16.53;53.93
68793;BME280;55778;54.346;10.210;2023-06-04T08:17:42;101898.91;;;16.11;53.25
68793;BME280;55778;54.346;10.210;2023-06-04T08:20:08;101893.97;;;16.76;52.47
68793;BME280;55778;54.346;10.210;2023-06-04T08:22:36;101898.63;;;16.31;53.21
68793;BME280;55778;54.346;10.210;2023-06-04T08:25:02;101900.66;;;16.29;53.54
68793;BME280;55778;54.346;10.210;2023-06-04T08:27:29;101901.81;;;16.09;55.12
68793;BME280;55778;54.346;10.210;2023-06-04T08:29:55;101896.91;;;16.30;54.73
68793;BME280;55778;54.346;10.210;2023-06-04T08:32:20;101901.53;;;16.02;53.72
68793;BME280;55778;54.346;10.210;2023-06-04T08:34:45;101899.88;;;16.37;54.81
68793;BME280;55778;54.346;10.210;2023-06-04T08:37:11;101898.19;;;17.06;54.88
68793;BME280;55778;54.346;10.210;2023-06-04T08:39:36;101905.81;;;16.59;52.30
68793;BME280;55778;54.346;10.210;2023-06-04T08:42:06;101899.69;;;16.65;51.05
68793;BME280;55778;54.346;10.210;2023-06-04T08:44:34;101901.25;;;17.03;49.75
68793;BME280;55778;54.346;10.210;2023-06-04T08:47:05;101893.91;;;17.62;50.83
68793;BME280;55778;54.346;10.210;2023-06-04T08:49:35;101898.13;;;17.23;51.53
68793;BME280;55778;54.346;10.210;2023-06-04T08:52:02;101901.16;;;17.38;50.21
68793;BME280;55778;54.346;10.210;2023-06-04T08:54:28;101901.88;;;16.97;49.44
68793;BME280;55778;54.346;10.210;2023-06-04T08:56:56;101899.03;;;16.89;50.62
68793;BME280;55778;54.346;10.210;2023-06-04T08:59:23;101905.41;;;16.54;51.89
68793;BME280;55778;54.346;10.210;2023-06-04T09:01:52;101907.63;;;16.68;52.68
68793;BME280;55778;54.346;10.210;2023-06-04T09:04:18;101900.94;;;16.88;51.90
68793;BME280;55778;54.346;10.210;2023-06-04T09:06:44;101899.97;;;17.58;52.19
68793;BME280;55778;54.346;10.210;2023-06-04T09:09:11;101906.53;;;17.65;52.42
68793;BME280;55778;54.346;10.210;2023-06-04T09:11:56;101892.56;;;18.00;51.89
68793;BME280;55778;54.346;10.210;2023-06-04T09:14:22;101893.97;;;17.70;51.27
68793;BME280;55778;54.346;10.210;2023-06-04T09:16:53;101898.72;;;18.36;51.09
68793;BME280;55778;54.346;10.210;2023-06-04T09:19:20;101891.94;;;18.72;50.20
68793;BME280;55778;54.346;10.210;2023-06-04T09:21:54;101901.88;;;18.49;50.59
68793;BME280;55778;54.346;10.210;2023-06-04T09:24:20;101903.25;;;18.45;50.15
68793;BME280;55778;54.346;10.210;2023-06-04T09:26:46;101901.66;;;18.34;49.59
68793;BME280;55778;54.346;10.210;2023-06-04T09:29:12;101900.22;;;18.72;49.27
68793;BME280;55778;54.346;10.210;2023-06-04T09:31:38;101901.53;;;18.52;50.32
68793;BME280;55778;54.346;10.210;2023-06-04T09:34:05;101900.59;;;18.93;47.99
68793;BME280;55778;54.346;10.210;2023-06-04T09:36:32;101904.72;;;19.05;47.76
68793;BME280;55778;54.346;10.210;2023-06-04T09:38:57;101903.34;;;19.33;46.68
68793;BME280;55778;54.346;10.210;2023-06-04T09:41:23;101899.69;;;19.08;47.12
68793;BME280;55778;54.346;10.210;2023-06-04T09:43:49;101898.81;;;19.56;46.92
68793;BME280;55778;54.346;10.210;2023-06-04T09:46:18;101907.09;;;19.48;46.64
68793;BME280;55778;54.346;10.210;2023-06-04T09:48:44;101907.47;;;19.21;47.29
68793;BME280;55778;54.346;10.210;2023-06-04T09:51:14;101905.09;;;19.89;45.88
68793;BME280;55778;54.346;10.210;2023-06-04T09:53:56;101910.84;;;20.56;44.61
68793;BME280;55778;54.346;10.210;2023-06-04T09:56:22;101907.72;;;20.29;46.87
68793;BME280;55778;54.346;10.210;2023-06-04T09:58:54;101905.88;;;20.21;45.80
68793;BME280;55778;54.346;10.210;2023-06-04T10:01:20;101899.91;;;20.63;44.47
68793;BME280;55778;54.346;10.210;2023-06-04T10:03:47;101910.22;;;20.08;45.93
68793;BME280;55778;54.346;10.210;2023-06-04T10:06:15;101904.00;;;19.59;44.11
68793;BME280;55778;54.346;10.210;2023-06-04T10:08:43;101906.59;;;20.07;42.44
68793;BME280;55778;54.346;10.210;2023-06-04T10:12:03;101908.31;;;20.08;42.86
68793;BME280;55778;54.346;10.210;2023-06-04T10:14:39;101914.91;;;19.44;44.34
68793;BME280;55778;54.346;10.210;2023-06-04T10:17:07;101904.69;;;19.45;44.58
68793;BME280;55778;54.346;10.210;2023-06-04T10:19:35;101905.22;;;18.84;47.72
68793;BME280;55778;54.346;10.210;2023-06-04T10:22:02;101901.09;;;19.44;46.68
68793;BME280;55778;54.346;10.210;2023-06-04T10:24:28;101902.50;;;19.40;46.56
68793;BME280;55778;54.346;10.210;2023-06-04T10:26:54;101899.19;;;19.37;47.19
68793;BME280;55778;54.346;10.210;2023-06-04T10:29:23;101905.22;;;19.56;46.37
68793;BME280;55778;54.346;10.210;2023-06-04T10:31:53;101903.72;;;20.31;45.53
68793;BME280;55778;54.346;10.210;2023-06-04T10:34:19;101901.63;;;19.95;45.63
68793;BME280;55778;54.346;10.210;2023-06-04T10:36:45;101905.00;;;20.21;45.64
68793;BME280;55778;54.346;10.210;2023-06-04T10:39:11;101912.59;;;19.80;45.86
68793;BME280;55778;54.346;10.210;2023-06-04T10:41:37;101899.13;;;20.77;44.15
68793;BME280;55778;54.346;10.210;2023-06-04T10:44:02;101892.88;;;21.57;43.83
68793;BME280;55778;54.346;10.210;2023-06-04T10:46:38;101905.88;;;20.21;44.33
68793;BME280;55778;54.346;10.210;2023-06-04T10:49:05;101909.53;;;19.59;45.36
68793;BME280;55778;54.346;10.210;2023-06-04T10:51:32;101907.63;;;19.51;45.38
68793;BME280;55778;54.346;10.210;2023-06-04T10:53:59;101906.34;;;19.78;44.74
68793;BME280;55778;54.346;10.210;2023-06-04T10:56:30;101912.91;;;20.32;44.60
68793;BME280;55778;54.346;10.210;2023-06-04T10:58:57;101910.53;;;21.27;43.06
68793;BME280;55778;54.346;10.210;2023-06-04T11:01:27;101903.94;;;21.05;41.95
68793;BME280;55778;54.346;10.210;2023-06-04T11:03:54;101906.03;;;22.07;42.85
68793;BME280;55778;54.346;10.210;2023-06-04T11:06:21;101893.28;;;21.98;41.80
68793;BME280;55778;54.346;10.210;2023-06-04T11:08:47;101906.47;;;20.39;43.14
68793;BME280;55778;54.346;10.210;2023-06-04T11:11:14;101893.41;;;21.90;41.04
68793;BME280;55778;54.346;10.210;2023-06-04T11:13:40;101898.00;;;22.12;41.64
68793;BME280;55778;54.346;10.210;2023-06-04T11:16:16;101891.53;;;21.67;42.15
68793;BME280;55778;54.346;10.210;2023-06-04T11:18:42;101899.59;;;22.06;41.33
68793;BME280;55778;54.346;10.210;2023-06-04T11:21:08;101901.56;;;20.19;43.15
68793;BME280;55778;54.346;10.210;2023-06-04T11:23:33;101900.56;;;20.04;44.03
68793;BME280;55778;54.346;10.210;2023-06-04T11:25:59;101903.47;;;20.49;44.72
68793;BME280;55778;54.346;10.210;2023-06-04T11:28:25;101887.00;;;21.89;41.64
68793;BME280;55778;54.346;10.210;2023-06-04T11:33:25;101891.31;;;22.42;41.26
68793;BME280;55778;54.346;10.210;2023-06-04T11:35:51;101890.84;;;23.37;37.77
68793;BME280;55778;54.346;10.210;2023-06-04T11:38:16;101889.47;;;24.09;35.63
68793;BME280;55778;54.346;10.210;2023-06-04T11:40:41;101885.97;;;24.48;35.13
68793;BME280;55778;54.346;10.210;2023-06-04T11:43:10;101891.97;;;23.70;36.90
68793;BME280;55778;54.346;10.210;2023-06-04T11:45:36;101890.00;;;21.50;40.98
68793;BME280;55778;54.346;10.210;2023-06-04T11:48:04;101897.34;;;22.45;40.56
68793;BME280;55778;54.346;10.210;2023-06-04T11:50:31;101895.50;;;24.26;36.11
68793;BME280;55778;54.346;10.210;2023-06-04T11:52:57;101895.66;;;24.05;35.55
68793;BME280;55778;54.346;10.210;2023-06-04T11:55:22;101892.72;;;24.73;36.16
68793;BME280;55778;54.346;10.210;2023-06-04T11:57:49;101882.03;;;25.09;34.86
68793;BME280;55778;54.346;10.210;2023-06-04T12:00:16;101880.81;;;25.38;33.88
68793;BME280;55778;54.346;10.210;2023-06-04T12:02:56;101896.63;;;23.63;37.69
68793;BME280;55778;54.346;10.210;2023-06-04T12:05:22;101883.84;;;24.56;35.07
68793;BME280;55778;54.346;10.210;2023-06-04T12:07:49;101893.44;;;22.40;37.94
68793;BME280;55778;54.346;10.210;2023-06-04T12:10:18;101898.88;;;21.46;40.35
68793;BME280;55778;54.346;10.210;2023-06-04T12:12:44;101901.44;;;20.04;45.26
68793;BME280;55778;54.346;10.210;2023-06-04T12:15:10;101890.06;;;21.94;42.53
68793;BME280;55778;54.346;10.210;2023-06-04T12:17:36;101896.31;;;21.59;41.97
68793;BME280;55778;54.346;10.210;2023-06-04T12:20:05;101888.13;;;21.95;41.25
68793;BME280;55778;54.346;10.210;2023-06-04T12:22:31;101883.06;;;22.84;40.18
68793;BME280;55778;54.346;10.210;2023-06-04T12:24:57;101885.28;;;23.16;39.71
68793;BME280;55778;54.346;10.210;2023-06-04T12:27:25;101883.94;;;23.88;37.95
68793;BME280;55778;54.346;10.210;2023-06-04T12:32:20;101878.63;;;23.31;39.96
68793;BME280;55778;54.346;10.210;2023-06-04T12:34:46;101880.00;;;23.42;38.94
68793;BME280;55778;54.346;10.210;2023-06-04T12:37:11;101877.81;;;24.46;38.01
68793;BME280;55778;54.346;10.210;2023-06-04T12:39:36;101871.25;;;24.13;37.96
68793;BME280;55778;54.346;10.210;2023-06-04T12:42:03;101869.44;;;22.68;40.65
68793;BME280;55778;54.346;10.210;2023-06-04T12:44:30;101869.34;;;23.03;39.69